createdAt,value
2022-12-04T00:01:28.967Z,68.33
2022-12-04T00:04:00.236Z,66.40
2022-12-04T00:06:29.788Z,58.37
2022-12-04T00:08:58.360Z,62.27
2022-12-04T00:11:30.845Z,54.17
2022-12-04T00:14:06.079Z,53.93
2022-12-04T00:16:35.036Z,61.40
2022-12-04T00:19:03.677Z,59.87
2022-12-04T00:21:32.454Z,62.83
2022-12-04T00:24:01.094Z,59.00
2022-12-04T00:26:32.187Z,55.47
2022-12-04T00:29:00.752Z,58.17
2022-12-04T00:31:30.770Z,55.17
2022-12-04T00:34:00.835Z,53.17
2022-12-04T00:36:31.180Z,60.27
2022-12-04T00:39:01.235Z,53.83
2022-12-04T00:41:32.190Z,53.97
2022-12-04T00:44:00.868Z,52.33
2022-12-04T00:46:29.922Z,49.57
2022-12-04T00:49:02.529Z,56.80
2022-12-04T00:51:31.523Z,52.07
2022-12-04T00:54:00.099Z,53.20
2022-12-04T00:56:31.123Z,52.07
2022-12-04T00:59:01.359Z,47.80
2022-12-04T01:01:30.591Z,45.20
2022-12-04T01:03:59.078Z,49.17
2022-12-04T01:06:28.740Z,45.13
2022-12-04T01:08:58.119Z,44.40
2022-12-04T01:11:27.995Z,43.13
2022-12-04T01:13:58.394Z,45.13
2022-12-04T01:16:29.088Z,45.17
2022-12-04T01:18:58.106Z,43.73
2022-12-04T01:21:26.614Z,46.07
2022-12-04T01:23:55.136Z,46.43
2022-12-04T01:26:23.586Z,40.87
2022-12-04T01:28:52.042Z,41.80
2022-12-04T01:31:23.272Z,39.90
2022-12-04T01:33:52.308Z,43.23
2022-12-04T01:36:22.840Z,41.30
2022-12-04T01:38:51.181Z,42.83
2022-12-04T01:41:22.939Z,42.00
2022-12-04T01:44:11.547Z,43.53
2022-12-04T01:46:42.105Z,40.20
2022-12-04T01:49:12.392Z,40.70
2022-12-04T01:51:43.179Z,43.27
2022-12-04T01:54:16.872Z,34.83
2022-12-04T01:56:47.459Z,37.57
2022-12-04T01:59:18.669Z,35.20
2022-12-04T02:01:54.199Z,38.23
2022-12-04T02:04:22.691Z,40.13
2022-12-04T02:06:51.186Z,37.00
2022-12-04T02:09:25.972Z,39.67
2022-12-04T02:11:59.332Z,40.10
2022-12-04T02:14:34.847Z,39.63
2022-12-04T02:17:11.256Z,38.57
2022-12-04T02:19:54.702Z,45.23
2022-12-04T02:22:32.162Z,43.07
2022-12-04T02:25:04.433Z,44.43
2022-12-04T02:28:03.601Z,37.67
2022-12-04T02:30:32.895Z,41.13
2022-12-04T02:33:05.000Z,41.13
2022-12-04T02:35:36.750Z,41.20
2022-12-04T02:38:09.900Z,40.60
2022-12-04T02:40:43.225Z,41.43
2022-12-04T02:43:16.713Z,38.93
2022-12-04T02:45:47.680Z,42.27
2022-12-04T02:48:20.239Z,40.37
2022-12-04T02:50:50.880Z,44.03
2022-12-04T02:53:22.528Z,42.53
2022-12-04T02:55:54.582Z,39.50
2022-12-04T02:58:27.979Z,38.00
2022-12-04T03:00:58.178Z,42.07
2022-12-04T03:03:29.674Z,42.30
2022-12-04T03:06:03.352Z,41.30
2022-12-04T03:08:34.304Z,43.70
2022-12-04T03:11:03.113Z,45.40
2022-12-04T03:13:37.491Z,40.80
2022-12-04T03:16:09.242Z,45.90
2022-12-04T03:18:40.609Z,45.37
2022-12-04T03:21:11.448Z,45.77
2022-12-04T03:23:44.642Z,45.27
2022-12-04T03:26:17.937Z,41.23
2022-12-04T03:28:54.306Z,45.37
2022-12-04T03:31:28.929Z,41.23
2022-12-04T03:33:59.495Z,44.13
2022-12-04T03:36:30.557Z,48.33
2022-12-04T03:39:03.602Z,44.03
2022-12-04T03:41:39.370Z,45.13
2022-12-04T03:44:13.598Z,44.30
2022-12-04T03:46:44.517Z,47.57
2022-12-04T03:49:16.646Z,46.73
2022-12-04T03:51:49.131Z,46.60
2022-12-04T03:54:20.684Z,44.10
2022-12-04T03:56:53.101Z,50.23
2022-12-04T03:59:25.600Z,46.27
2022-12-04T04:01:55.360Z,49.03
2022-12-04T04:04:27.320Z,50.47
2022-12-04T04:06:58.434Z,48.93
2022-12-04T04:09:28.283Z,47.10
2022-12-04T04:11:59.615Z,49.80
2022-12-04T04:14:51.431Z,48.20
2022-12-04T04:17:41.133Z,46.33
2022-12-04T04:20:30.733Z,49.43
2022-12-04T04:23:18.975Z,48.97
2022-12-04T04:25:48.528Z,48.87
2022-12-04T04:28:31.361Z,48.50
2022-12-04T04:31:07.877Z,53.03
2022-12-04T04:33:39.288Z,49.07
2022-12-04T04:36:13.339Z,51.23
2022-12-04T04:38:46.502Z,52.43
2022-12-04T04:41:18.691Z,50.17
2022-12-04T04:43:52.671Z,48.57
2022-12-04T04:46:26.725Z,51.67
2022-12-04T04:48:58.960Z,50.63
2022-12-04T04:51:28.082Z,47.77
2022-12-04T04:53:59.593Z,48.60
2022-12-04T04:56:28.599Z,48.60
2022-12-04T04:58:56.977Z,55.77
2022-12-04T05:01:29.503Z,51.27
2022-12-04T05:03:58.873Z,48.10
2022-12-04T05:06:27.223Z,49.63
2022-12-04T05:08:55.707Z,50.13
2022-12-04T05:11:24.027Z,55.97
2022-12-04T05:13:52.765Z,54.13
2022-12-04T05:16:21.614Z,54.60
2022-12-04T05:19:05.339Z,53.10
2022-12-04T05:21:34.711Z,48.67
2022-12-04T05:24:03.354Z,52.60
2022-12-04T05:26:31.784Z,56.20
2022-12-04T05:29:00.241Z,58.17
2022-12-04T05:31:28.667Z,54.43
2022-12-04T05:33:59.361Z,57.50
2022-12-04T05:36:28.058Z,55.33
2022-12-04T05:38:56.628Z,59.90
2022-12-04T05:41:25.469Z,57.30
2022-12-04T05:43:54.218Z,57.13
2022-12-04T05:46:22.632Z,62.80
2022-12-04T05:48:50.965Z,55.30
2022-12-04T05:51:20.827Z,64.67
2022-12-04T05:53:49.483Z,69.90
2022-12-04T05:56:17.843Z,61.90
2022-12-04T05:58:46.235Z,59.27
2022-12-04T06:01:17.058Z,67.80
2022-12-04T06:03:45.546Z,66.90
2022-12-04T06:06:21.088Z,59.33
2022-12-04T06:08:52.810Z,62.13
2022-12-04T06:11:23.359Z,64.87
2022-12-04T06:13:51.904Z,58.80
2022-12-04T06:16:22.695Z,61.03
2022-12-04T06:18:52.603Z,58.13
2022-12-04T06:21:21.911Z,59.33
2022-12-04T06:23:52.651Z,58.57
2022-12-04T06:26:21.467Z,55.77
2022-12-04T06:28:50.333Z,65.13
2022-12-04T06:31:19.926Z,61.77
2022-12-04T06:33:48.625Z,62.27
2022-12-04T06:36:21.114Z,61.83
2022-12-04T06:38:51.363Z,60.70
2022-12-04T06:41:21.420Z,60.00
2022-12-04T06:43:51.656Z,60.73
2022-12-04T06:46:21.569Z,61.10
2022-12-04T06:48:50.346Z,62.47
2022-12-04T06:51:20.159Z,65.60
2022-12-04T06:53:48.844Z,59.10
2022-12-04T06:56:20.427Z,55.93
2022-12-04T06:58:50.855Z,58.20
2022-12-04T07:01:23.128Z,60.53
2022-12-04T07:03:52.043Z,60.97
2022-12-04T07:06:22.147Z,62.07
2022-12-04T07:08:52.062Z,60.50
2022-12-04T07:11:23.518Z,57.03
2022-12-04T07:13:52.370Z,57.83
2022-12-04T07:16:22.219Z,61.93
2022-12-04T07:18:53.397Z,63.37
2022-12-04T07:21:23.278Z,63.57
2022-12-04T07:23:52.557Z,59.50
2022-12-04T07:26:22.847Z,62.63
2022-12-04T07:28:51.451Z,60.40
2022-12-04T07:31:21.737Z,62.20
2022-12-04T07:33:51.028Z,61.47
2022-12-04T07:36:21.770Z,60.37
2022-12-04T07:38:50.718Z,59.17
2022-12-04T07:41:21.254Z,55.23
2022-12-04T07:43:49.943Z,58.43
2022-12-04T07:46:20.269Z,58.40
2022-12-04T07:48:48.708Z,54.70
2022-12-04T07:51:18.933Z,59.83
2022-12-04T07:53:47.515Z,54.93
2022-12-04T07:56:16.444Z,58.57
2022-12-04T07:58:46.374Z,59.77
2022-12-04T08:01:16.599Z,58.50
2022-12-04T08:03:48.325Z,56.60
2022-12-04T08:06:18.271Z,60.30
2022-12-04T08:08:47.636Z,57.00
2022-12-04T08:11:18.066Z,60.00
2022-12-04T08:13:47.916Z,57.60
2022-12-04T08:16:17.210Z,57.63
2022-12-04T08:18:48.658Z,58.07
2022-12-04T08:21:19.352Z,55.03
2022-12-04T08:23:48.758Z,56.27
2022-12-04T08:26:17.765Z,59.60
2022-12-04T08:28:47.898Z,57.27
2022-12-04T08:31:18.617Z,54.00
2022-12-04T08:33:48.608Z,56.47
2022-12-04T08:36:20.334Z,56.70
2022-12-04T08:38:49.749Z,54.23
2022-12-04T08:41:20.667Z,54.73
2022-12-04T08:43:50.846Z,55.23
2022-12-04T08:46:20.181Z,53.30
2022-12-04T08:48:48.784Z,59.47
2022-12-04T08:51:18.557Z,55.03
2022-12-04T08:53:47.340Z,52.57
2022-12-04T08:56:16.238Z,47.43
2022-12-04T08:58:44.624Z,47.90
2022-12-04T09:01:16.488Z,53.30
2022-12-04T09:03:45.381Z,50.80
2022-12-04T09:06:15.702Z,50.50
2022-12-04T09:08:44.210Z,52.13
2022-12-04T09:11:14.210Z,53.53
2022-12-04T09:13:43.502Z,47.03
2022-12-04T09:16:16.374Z,53.17
2022-12-04T09:18:45.284Z,52.53
2022-12-04T09:21:16.087Z,53.37
2022-12-04T09:23:44.762Z,50.23
2022-12-04T09:26:19.823Z,51.13
2022-12-04T09:28:48.633Z,52.27
2022-12-04T09:31:19.325Z,45.47
2022-12-04T09:33:47.890Z,51.93
2022-12-04T09:36:17.143Z,52.03
2022-12-04T09:38:46.895Z,47.07
2022-12-04T09:41:25.272Z,44.30
2022-12-04T09:43:59.196Z,51.23
2022-12-04T09:46:34.113Z,48.63
2022-12-04T09:49:05.833Z,46.60
2022-12-04T09:51:35.162Z,47.90
2022-12-04T09:54:06.941Z,48.93
2022-12-04T09:56:35.708Z,49.27
2022-12-04T09:59:08.862Z,51.60
2022-12-04T10:01:44.841Z,50.77
2022-12-04T10:04:14.176Z,45.33
2022-12-04T10:06:48.236Z,47.93
2022-12-04T10:09:22.264Z,46.93
2022-12-04T10:11:54.372Z,48.53
2022-12-04T10:14:32.746Z,52.73
2022-12-04T10:17:35.247Z,47.17
2022-12-04T10:20:13.550Z,51.73
2022-12-04T10:22:47.005Z,45.37
2022-12-04T10:25:19.235Z,45.27
2022-12-04T10:27:51.747Z,50.77
2022-12-04T10:30:22.566Z,49.87
2022-12-04T10:32:56.799Z,49.80
2022-12-04T10:35:27.412Z,48.77
2022-12-04T10:38:17.297Z,45.63
2022-12-04T10:40:49.340Z,45.23
2022-12-04T10:43:23.258Z,48.93
2022-12-04T10:45:52.007Z,46.70
2022-12-04T10:48:24.084Z,43.87
2022-12-04T10:50:52.645Z,47.20
2022-12-04T10:53:27.970Z,48.33
2022-12-04T10:55:56.512Z,48.10
2022-12-04T10:58:27.127Z,43.03
2022-12-04T11:01:04.985Z,46.27
2022-12-04T11:03:35.800Z,43.73
2022-12-04T11:06:06.050Z,41.10
2022-12-04T11:08:38.875Z,47.53
2022-12-04T11:11:11.301Z,44.80
2022-12-04T11:13:40.008Z,38.73
2022-12-04T11:16:09.344Z,39.07
2022-12-04T11:18:49.986Z,41.50
2022-12-04T11:21:24.453Z,41.17
2022-12-04T11:23:53.618Z,40.60
2022-12-04T11:26:32.241Z,40.90
2022-12-04T11:29:02.491Z,38.47
2022-12-04T11:31:33.114Z,40.00
2022-12-04T11:34:04.660Z,38.63
2022-12-04T11:36:36.019Z,51.73
2022-12-04T11:39:08.463Z,38.17
2022-12-04T11:41:37.098Z,40.57
2022-12-04T11:44:07.354Z,38.57
2022-12-04T11:46:35.870Z,40.43
2022-12-04T11:49:05.863Z,37.87
2022-12-04T11:51:43.091Z,36.73
2022-12-04T11:54:23.410Z,36.10
2022-12-04T11:57:01.385Z,35.57
2022-12-04T11:59:48.210Z,37.00
2022-12-04T12:02:36.362Z,36.27
2022-12-04T12:05:16.160Z,37.87
2022-12-04T12:07:56.405Z,34.20
2022-12-04T12:10:33.451Z,34.13
2022-12-04T12:13:08.375Z,35.67
2022-12-04T12:15:43.214Z,34.80
2022-12-04T12:18:28.765Z,38.40
2022-12-04T12:21:06.620Z,31.87
2022-12-04T12:23:49.888Z,35.23
2022-12-04T12:26:20.007Z,35.97
2022-12-04T12:29:10.394Z,37.40
2022-12-04T12:31:59.556Z,33.23
2022-12-04T12:34:37.399Z,32.93
2022-12-04T12:37:14.692Z,35.40
2022-12-04T12:39:48.684Z,29.67
2022-12-04T12:42:19.548Z,31.30
2022-12-04T12:44:53.367Z,30.97
2022-12-04T12:47:25.083Z,32.33
2022-12-04T12:49:58.856Z,30.77
2022-12-04T12:52:33.313Z,30.53
2022-12-04T12:55:05.016Z,31.67
2022-12-04T12:57:37.955Z,29.33
2022-12-04T13:00:09.737Z,28.30
2022-12-04T13:02:42.398Z,30.43
2022-12-04T13:05:12.821Z,29.13
2022-12-04T13:07:47.239Z,34.17
2022-12-04T13:10:20.133Z,28.17
2022-12-04T13:12:53.197Z,26.93
2022-12-04T13:15:25.406Z,29.43
2022-12-04T13:17:55.711Z,32.63
2022-12-04T13:20:27.823Z,29.93
2022-12-04T13:23:11.847Z,31.57
2022-12-04T13:25:48.718Z,33.57
2022-12-04T13:28:27.270Z,31.23
2022-12-04T13:31:01.847Z,33.57
2022-12-04T13:33:53.068Z,33.20
2022-12-04T13:36:31.682Z,35.90
2022-12-04T13:39:21.618Z,33.27
2022-12-04T13:41:58.650Z,37.00
2022-12-04T13:44:27.741Z,35.70
2022-12-04T13:47:00.336Z,34.70
2022-12-04T13:49:30.249Z,35.93
2022-12-04T13:52:00.179Z,39.30
2022-12-04T13:54:32.852Z,36.53
2022-12-04T13:57:19.662Z,33.83
2022-12-04T13:59:48.998Z,35.57
2022-12-04T14:02:29.989Z,28.80
2022-12-04T14:05:01.464Z,34.10
2022-12-04T14:07:33.031Z,28.17
2022-12-04T14:10:06.024Z,29.33
2022-12-04T14:12:37.596Z,29.63
2022-12-04T14:15:08.192Z,32.43
2022-12-04T14:17:38.525Z,30.53
2022-12-04T14:20:10.199Z,32.93
2022-12-04T14:22:43.897Z,33.23
2022-12-04T14:25:43.890Z,39.77
2022-12-04T14:28:24.911Z,36.43
2022-12-04T14:31:11.345Z,40.97
2022-12-04T14:33:41.441Z,44.80
2022-12-04T14:36:12.695Z,46.67
2022-12-04T14:38:41.371Z,45.20
2022-12-04T14:41:11.272Z,43.40
2022-12-04T14:43:42.599Z,49.97
2022-12-04T14:46:16.888Z,48.50
2022-12-04T14:48:53.861Z,44.77
2022-12-04T14:51:29.472Z,50.93
2022-12-04T14:54:04.306Z,48.33
2022-12-04T14:56:42.932Z,45.80
2022-12-04T14:59:17.765Z,45.40
2022-12-04T15:01:48.546Z,42.53
2022-12-04T15:04:23.862Z,45.60
2022-12-04T15:06:56.911Z,45.43
2022-12-04T15:09:47.036Z,44.07
2022-12-04T15:12:35.016Z,41.83
2022-12-04T15:15:12.707Z,42.47
2022-12-04T15:17:41.511Z,40.37
2022-12-04T15:20:12.474Z,45.07
2022-12-04T15:22:40.971Z,49.07
2022-12-04T15:25:19.497Z,47.60
2022-12-04T15:27:50.360Z,49.47
2022-12-04T15:30:31.066Z,53.77
2022-12-04T15:32:59.830Z,46.23
2022-12-04T15:35:30.772Z,53.40
2022-12-04T15:37:59.238Z,57.47
2022-12-04T15:40:30.725Z,53.23
2022-12-04T15:43:16.718Z,51.57
2022-12-04T15:45:45.748Z,55.30
2022-12-04T15:48:25.096Z,55.80
2022-12-04T15:51:01.577Z,51.30
2022-12-04T15:53:31.837Z,55.43
2022-12-04T15:56:02.363Z,53.07
2022-12-04T15:58:33.730Z,55.70
2022-12-04T16:01:03.351Z,54.57
2022-12-04T16:03:34.495Z,56.13
2022-12-04T16:06:17.208Z,54.53
2022-12-04T16:08:47.192Z,50.93
2022-12-04T16:11:40.138Z,57.70
2022-12-04T16:14:18.342Z,56.27
2022-12-04T16:16:49.130Z,51.33
2022-12-04T16:19:22.302Z,54.90
2022-12-04T16:21:51.200Z,52.80
2022-12-04T16:24:19.573Z,59.13
2022-12-04T16:26:51.952Z,57.60
2022-12-04T16:29:21.931Z,52.53
2022-12-04T16:31:50.717Z,52.70
2022-12-04T16:34:19.540Z,51.40
2022-12-04T16:36:47.996Z,62.03
2022-12-04T16:39:16.591Z,57.73
2022-12-04T16:41:45.018Z,61.53
2022-12-04T16:44:17.263Z,57.47
2022-12-04T16:46:47.049Z,58.83
2022-12-04T16:49:15.700Z,57.97
2022-12-04T16:51:45.068Z,57.13
2022-12-04T16:54:14.312Z,59.50
2022-12-04T16:56:42.843Z,59.17
2022-12-04T16:59:12.776Z,59.27
2022-12-04T17:01:44.497Z,59.53
2022-12-04T17:04:14.814Z,60.30
2022-12-04T17:06:43.821Z,57.87
2022-12-04T17:09:13.226Z,61.53
2022-12-04T17:11:42.202Z,61.00
2022-12-04T17:14:11.016Z,52.33
2022-12-04T17:16:43.712Z,62.23
2022-12-04T17:19:14.158Z,55.20
2022-12-04T17:21:42.859Z,53.57
2022-12-04T17:24:11.467Z,58.67
2022-12-04T17:26:39.879Z,48.03
2022-12-04T17:29:08.335Z,49.90
2022-12-04T17:31:37.036Z,50.87
2022-12-04T17:34:05.689Z,51.47
2022-12-04T17:36:35.506Z,48.97
2022-12-04T17:39:03.944Z,46.67
2022-12-04T17:41:32.406Z,45.20
2022-12-04T17:44:01.801Z,47.30
2022-12-04T17:46:30.502Z,46.43
2022-12-04T17:49:03.890Z,49.37
2022-12-04T17:51:37.046Z,46.60
2022-12-04T17:54:05.726Z,46.10
2022-12-04T17:56:34.299Z,44.43
2022-12-04T17:59:02.798Z,44.50
2022-12-04T18:01:31.536Z,42.10
2022-12-04T18:04:03.266Z,44.30
2022-12-04T18:06:33.747Z,41.13
2022-12-04T18:09:03.906Z,39.87
2022-12-04T18:11:34.966Z,37.30
2022-12-04T18:14:11.452Z,41.77
2022-12-04T18:16:42.185Z,36.17
2022-12-04T18:19:11.735Z,40.03
2022-12-04T18:21:40.377Z,41.10
2022-12-04T18:24:10.355Z,39.53
2022-12-04T18:26:40.599Z,40.70
2022-12-04T18:29:09.554Z,38.67
2022-12-04T18:31:38.218Z,35.60
2022-12-04T18:34:07.442Z,37.80
2022-12-04T18:36:37.440Z,35.00
2022-12-04T18:39:10.427Z,34.73
2022-12-04T18:41:38.984Z,33.20
2022-12-04T18:44:07.706Z,37.23
2022-12-04T18:46:36.215Z,32.90
2022-12-04T18:49:05.142Z,37.10
2022-12-04T18:51:36.026Z,32.93
2022-12-04T18:54:06.397Z,34.50
2022-12-04T18:56:37.613Z,36.33
2022-12-04T18:59:08.059Z,31.27
2022-12-04T19:01:36.819Z,31.50
2022-12-04T19:04:07.565Z,34.10
2022-12-04T19:06:37.816Z,36.27
2022-12-04T19:09:08.243Z,33.13
2022-12-04T19:11:38.532Z,30.53
2022-12-04T19:14:16.063Z,32.07
2022-12-04T19:16:45.135Z,33.87
2022-12-04T19:19:14.213Z,30.20
2022-12-04T19:21:43.012Z,29.73
2022-12-04T19:24:11.723Z,30.50
2022-12-04T19:26:42.659Z,32.73
2022-12-04T19:29:13.853Z,30.27
2022-12-04T19:31:42.494Z,28.23
2022-12-04T19:34:11.243Z,29.57
2022-12-04T19:36:41.145Z,30.40
2022-12-04T19:39:09.746Z,30.37
2022-12-04T19:41:40.814Z,28.37
2022-12-04T19:44:46.894Z,30.50
2022-12-04T19:46:59.963Z,27.40
2022-12-04T19:49:28.551Z,27.10
2022-12-04T19:51:57.038Z,29.00
2022-12-04T19:54:26.076Z,28.87
2022-12-04T19:56:54.613Z,27.23
2022-12-04T19:59:24.366Z,27.90
2022-12-04T20:01:52.925Z,25.47
2022-12-04T20:04:21.609Z,25.17
2022-12-04T20:06:50.172Z,25.20
2022-12-04T20:09:21.622Z,24.13
2022-12-04T20:11:50.236Z,24.17
2022-12-04T20:14:19.153Z,24.73
2022-12-04T20:16:49.056Z,27.07
2022-12-04T20:19:18.725Z,26.57
2022-12-04T20:21:47.935Z,23.97
2022-12-04T20:24:17.535Z,26.43
2022-12-04T20:26:46.841Z,26.93
2022-12-04T20:29:19.014Z,29.10
2022-12-04T20:31:48.793Z,28.20
2022-12-04T20:34:18.867Z,27.20
2022-12-04T20:36:48.794Z,30.07
2022-12-04T20:39:18.489Z,28.70
2022-12-04T20:41:47.547Z,30.20
2022-12-04T20:44:18.431Z,34.03
2022-12-04T20:46:48.733Z,30.30
2022-12-04T20:49:22.113Z,31.80
2022-12-04T20:51:52.614Z,34.27
2022-12-04T20:54:23.152Z,33.20
2022-12-04T20:56:53.258Z,34.10
2022-12-04T20:59:23.816Z,35.53
2022-12-04T21:01:54.748Z,35.13
2022-12-04T21:04:23.632Z,42.63
2022-12-04T21:06:53.468Z,40.50
2022-12-04T21:09:24.398Z,43.57
2022-12-04T21:11:54.698Z,44.73
2022-12-04T21:14:41.940Z,43.37
2022-12-04T21:17:16.733Z,48.50
2022-12-04T21:19:45.874Z,46.37
2022-12-04T21:22:16.284Z,51.33
2022-12-04T21:24:44.771Z,61.03
2022-12-04T21:27:20.399Z,58.33
2022-12-04T21:29:49.851Z,65.30
2022-12-04T21:32:20.757Z,58.37
2022-12-04T21:34:49.492Z,64.53
2022-12-04T21:37:17.921Z,67.70
2022-12-04T21:39:46.357Z,75.10
2022-12-04T21:42:32.909Z,70.10
2022-12-04T21:45:01.797Z,75.70
2022-12-04T21:47:32.010Z,77.20
2022-12-04T21:50:01.174Z,71.77
2022-12-04T21:52:30.219Z,77.87
2022-12-04T21:54:59.153Z,73.80
2022-12-04T21:57:29.543Z,82.57
2022-12-04T21:59:58.276Z,71.40
2022-12-04T22:02:27.398Z,78.37
2022-12-04T22:04:57.397Z,77.60
2022-12-04T22:07:25.771Z,67.67
2022-12-04T22:09:54.556Z,74.43
2022-12-04T22:15:12.188Z,74.03
2022-12-04T22:17:41.485Z,79.07
2022-12-04T22:20:12.260Z,80.83
2022-12-04T22:22:41.795Z,78.93
2022-12-04T22:25:10.922Z,78.57
2022-12-04T22:27:39.498Z,78.10
2022-12-04T22:30:09.421Z,77.80
2022-12-04T22:32:38.102Z,92.17
2022-12-04T22:35:07.457Z,82.07
2022-12-04T22:37:41.184Z,70.97
2022-12-04T22:40:13.614Z,78.63
2022-12-04T22:42:42.122Z,70.70
2022-12-04T22:45:11.644Z,79.20
2022-12-04T22:47:40.247Z,84.10
2022-12-04T22:50:10.027Z,77.00
2022-12-04T22:52:39.895Z,75.40
2022-12-04T22:55:08.965Z,73.43
2022-12-04T22:57:37.615Z,82.43
2022-12-04T23:00:07.889Z,74.63
2022-12-04T23:02:36.381Z,72.27
2022-12-04T23:05:05.440Z,73.20
2022-12-04T23:07:33.975Z,78.50
2022-12-04T23:10:04.245Z,84.33
2022-12-04T23:12:32.974Z,76.83
2022-12-04T23:15:01.304Z,78.37
2022-12-04T23:17:29.625Z,81.63
2022-12-04T23:19:58.205Z,82.87
2022-12-04T23:22:26.951Z,77.27
2022-12-04T23:24:55.666Z,76.73
2022-12-04T23:27:25.462Z,82.50
2022-12-04T23:29:54.471Z,79.80
2022-12-04T23:32:23.011Z,76.20
2022-12-04T23:34:53.023Z,94.43
2022-12-04T23:37:21.650Z,78.60
2022-12-04T23:39:50.024Z,90.33
2022-12-04T23:42:18.560Z,80.90
2022-12-04T23:44:48.632Z,84.53
2022-12-04T23:47:17.479Z,77.70
2022-12-04T23:49:46.101Z,86.93
2022-12-04T23:52:14.650Z,88.50
2022-12-04T23:54:43.162Z,83.40
2022-12-04T23:57:11.571Z,82.10
2022-12-04T23:59:40.146Z,86.20
